createdAt,value
2019-02-22T00:00:33.515Z,98551.74
2019-02-22T00:03:00.914Z,98554.32
2019-02-22T00:05:28.330Z,98555.36
2019-02-22T00:07:56.613Z,98548.11
2019-02-22T00:10:24.065Z,98544.09
2019-02-22T00:12:51.491Z,98547.95
2019-02-22T00:15:18.888Z,98545.73
2019-02-22T00:17:46.348Z,98550.19
2019-02-22T00:20:13.775Z,98552.25
2019-02-22T00:22:41.193Z,98555.36
2019-02-22T00:25:08.632Z,98549.30
2019-02-22T00:27:36.039Z,98545.74
2019-02-22T00:30:03.431Z,98547.55
2019-02-22T00:32:30.889Z,98551.56
2019-02-22T00:34:58.330Z,98553.46
2019-02-22T00:37:25.727Z,98548.78
2019-02-22T00:39:53.157Z,98550.91
2019-02-22T00:42:20.571Z,98545.86
2019-02-22T00:44:48.039Z,98547.96
2019-02-22T00:47:15.438Z,98552.77
2019-02-22T00:49:42.844Z,98558.46
2019-02-22T00:52:10.242Z,98559.42
2019-02-22T00:54:37.676Z,98562.08
2019-02-22T00:57:05.065Z,98561.36
2019-02-22T00:59:32.481Z,98558.23
2019-02-22T01:02:00.046Z,98556.73
2019-02-22T01:04:27.437Z,98563.70
2019-02-22T01:06:54.874Z,98568.84
2019-02-22T01:09:22.288Z,98562.19
2019-02-22T01:11:49.691Z,98563.91
2019-02-22T01:14:17.128Z,98564.22
2019-02-22T01:16:44.547Z,98567.27
2019-02-22T01:19:11.935Z,98565.47
2019-02-22T01:21:39.339Z,98566.81
2019-02-22T01:24:06.747Z,98570.77
2019-02-22T01:26:34.169Z,98561.26
2019-02-22T01:29:01.557Z,98563.00
2019-02-22T01:31:28.940Z,98561.37
2019-02-22T01:33:56.787Z,98561.45
2019-02-22T01:36:24.202Z,98563.03
2019-02-22T01:38:51.615Z,98556.52
2019-02-22T01:41:19.044Z,98555.38
2019-02-22T01:43:46.598Z,98547.92
2019-02-22T01:46:14.066Z,98556.52
2019-02-22T01:48:41.468Z,98559.49
2019-02-22T01:51:08.867Z,98556.48
2019-02-22T01:53:36.267Z,98557.03
2019-02-22T01:56:03.677Z,98553.67
2019-02-22T01:58:31.099Z,98550.24
2019-02-22T02:00:58.490Z,98548.11
2019-02-22T02:03:25.964Z,98544.68
2019-02-22T02:05:53.380Z,98561.05
2019-02-22T02:08:20.975Z,98563.56
2019-02-22T02:10:54.075Z,98554.08
2019-02-22T02:13:15.905Z,98551.14
2019-02-22T02:15:43.308Z,98555.08
2019-02-22T02:18:10.713Z,98547.24
2019-02-22T02:20:38.127Z,98560.34
2019-02-22T02:23:05.534Z,98567.17
2019-02-22T02:25:32.940Z,98563.27
2019-02-22T02:28:00.349Z,98566.20
2019-02-22T02:30:27.760Z,98570.95
2019-02-22T02:32:55.148Z,98570.17
2019-02-22T02:35:22.538Z,98573.74
2019-02-22T02:37:49.943Z,98563.03
2019-02-22T02:40:17.336Z,98560.38
2019-02-22T02:42:44.775Z,98552.44
2019-02-22T02:45:12.236Z,98548.94
2019-02-22T02:47:39.697Z,98544.78
2019-02-22T02:50:07.104Z,98554.84
2019-02-22T02:52:34.502Z,98550.13
2019-02-22T02:55:02.062Z,98555.27
2019-02-22T02:57:29.529Z,98553.58
2019-02-22T02:59:56.980Z,98556.68
2019-02-22T03:02:24.397Z,98550.69
2019-02-22T03:04:51.810Z,98550.33
2019-02-22T03:07:24.892Z,98544.23
2019-02-22T03:09:52.304Z,98543.36
2019-02-22T03:12:19.795Z,98546.52
2019-02-22T03:14:47.243Z,98546.07
2019-02-22T03:17:14.614Z,98543.92
2019-02-22T03:19:42.048Z,98548.64
2019-02-22T03:22:09.456Z,98548.60
2019-02-22T03:24:36.921Z,98560.06
2019-02-22T03:27:04.278Z,98560.52
2019-02-22T03:29:31.682Z,98556.19
2019-02-22T03:31:59.247Z,98555.44
2019-02-22T03:34:26.636Z,98558.19
2019-02-22T03:36:54.050Z,98556.52
2019-02-22T03:39:21.512Z,98559.88
2019-02-22T03:41:49.069Z,98559.81
2019-02-22T03:44:16.507Z,98561.02
2019-02-22T03:46:43.907Z,98556.67
2019-02-22T03:49:11.316Z,98558.50
2019-02-22T03:51:38.737Z,98558.08
2019-02-22T03:54:06.136Z,98562.04
2019-02-22T03:56:33.548Z,98559.38
2019-02-22T03:59:01.242Z,98555.97
2019-02-22T04:01:28.646Z,98555.13
2019-02-22T04:03:56.041Z,98560.49
2019-02-22T04:06:23.444Z,98563.56
2019-02-22T04:08:50.860Z,98565.65
2019-02-22T04:11:18.377Z,98566.97
2019-02-22T04:13:45.790Z,98566.58
2019-02-22T04:16:13.202Z,98568.34
2019-02-22T04:18:40.606Z,98568.47
2019-02-22T04:21:08.008Z,98571.55
2019-02-22T04:23:35.403Z,98572.47
2019-02-22T04:26:02.826Z,98575.53
2019-02-22T04:28:30.247Z,98576.91
2019-02-22T04:30:57.655Z,98575.63
2019-02-22T04:33:25.064Z,98569.24
2019-02-22T04:35:52.469Z,98566.75
2019-02-22T04:38:19.943Z,98571.96
2019-02-22T04:40:47.341Z,98565.02
2019-02-22T04:43:14.747Z,98564.08
2019-02-22T04:45:42.345Z,98556.70
2019-02-22T04:48:09.745Z,98558.85
2019-02-22T04:50:37.138Z,98557.14
2019-02-22T04:53:04.547Z,98554.06
2019-02-22T04:55:31.969Z,98556.17
2019-02-22T04:57:59.941Z,98560.61
2019-02-22T05:00:27.351Z,98565.36
2019-02-22T05:02:54.747Z,98562.86
2019-02-22T05:05:22.259Z,98562.28
2019-02-22T05:07:49.706Z,98558.53
2019-02-22T05:10:17.112Z,98553.77
2019-02-22T05:12:44.510Z,98555.46
2019-02-22T05:15:13.078Z,98557.61
2019-02-22T05:17:39.337Z,98550.70
2019-02-22T05:20:06.725Z,98556.75
2019-02-22T05:22:34.135Z,98553.22
2019-02-22T05:25:01.550Z,98560.70
2019-02-22T05:27:29.127Z,98559.86
2019-02-22T05:29:56.676Z,98558.53
2019-02-22T05:32:24.069Z,98564.22
2019-02-22T05:34:51.467Z,98568.61
2019-02-22T05:37:18.951Z,98573.83
2019-02-22T05:39:46.346Z,98560.80
2019-02-22T05:42:22.607Z,98557.91
2019-02-22T05:44:41.201Z,98563.17
2019-02-22T05:47:08.598Z,98564.00
2019-02-22T05:49:36.012Z,98568.25
2019-02-22T05:52:03.419Z,98564.22
2019-02-22T05:54:30.814Z,98555.08
2019-02-22T05:56:58.292Z,98557.02
2019-02-22T05:59:25.727Z,98555.64
2019-02-22T06:01:53.246Z,98556.48
2019-02-22T06:04:20.644Z,98559.03
2019-02-22T06:06:48.115Z,98555.66
2019-02-22T06:09:15.699Z,98559.17
2019-02-22T06:11:43.120Z,98554.86
2019-02-22T06:14:10.524Z,98559.98
2019-02-22T06:16:37.924Z,98554.47
2019-02-22T06:19:05.349Z,98557.45
2019-02-22T06:21:32.775Z,98553.02
2019-02-22T06:24:02.751Z,98557.71
2019-02-22T06:26:30.336Z,98562.87
2019-02-22T06:28:55.017Z,98568.15
2019-02-22T06:31:22.415Z,98572.84
2019-02-22T06:33:49.858Z,98562.11
2019-02-22T06:36:17.294Z,98565.98
2019-02-22T06:38:46.731Z,98577.74
2019-02-22T06:41:12.396Z,98570.77
2019-02-22T06:43:39.800Z,98581.53
2019-02-22T06:46:07.948Z,98578.81
2019-02-22T06:48:35.378Z,98585.30
2019-02-22T06:51:02.798Z,98593.21
2019-02-22T06:53:30.277Z,98597.58
2019-02-22T06:55:57.717Z,98594.17
2019-02-22T06:58:25.463Z,98591.34
2019-02-22T07:00:52.913Z,98592.52
2019-02-22T07:03:20.561Z,98600.60
2019-02-22T07:05:48.084Z,98606.05
2019-02-22T07:08:15.400Z,98602.02
2019-02-22T07:11:03.631Z,98606.26
2019-02-22T07:13:31.049Z,98613.11
2019-02-22T07:15:58.463Z,98608.38
2019-02-22T07:18:25.878Z,98610.59
2019-02-22T07:20:53.460Z,98606.72
2019-02-22T07:23:20.875Z,98600.56
2019-02-22T07:25:48.280Z,98607.41
2019-02-22T07:28:15.689Z,98606.23
2019-02-22T07:30:43.122Z,98606.83
2019-02-22T07:33:10.664Z,98608.66
2019-02-22T07:35:38.102Z,98612.70
2019-02-22T07:38:05.528Z,98606.68
2019-02-22T07:40:32.963Z,98610.87
2019-02-22T07:43:07.750Z,98607.20
2019-02-22T07:45:27.913Z,98604.85
2019-02-22T07:47:55.328Z,98601.33
2019-02-22T07:50:22.752Z,98602.60
2019-02-22T07:52:50.242Z,98605.31
2019-02-22T07:55:17.678Z,98613.30
2019-02-22T07:57:45.079Z,98614.16
2019-02-22T08:00:13.349Z,98613.06
2019-02-22T08:02:40.757Z,98623.88
2019-02-22T08:05:09.213Z,98623.98
2019-02-22T08:07:35.602Z,98622.71
2019-02-22T08:10:03.065Z,98621.36
2019-02-22T08:12:30.492Z,98614.62
2019-02-22T08:14:58.220Z,98618.42
2019-02-22T08:17:25.653Z,98617.37
2019-02-22T08:19:53.356Z,98615.53
2019-02-22T08:22:20.907Z,98617.37
2019-02-22T08:24:48.274Z,98610.02
2019-02-22T08:27:15.242Z,98616.16
2019-02-22T08:29:42.206Z,98599.86
2019-02-22T08:32:09.155Z,98607.80
2019-02-22T08:34:36.125Z,98605.33
2019-02-22T08:37:03.158Z,98604.72
2019-02-22T08:39:30.118Z,98604.25
2019-02-22T08:41:57.253Z,98605.28
2019-02-22T08:44:24.236Z,98611.90
2019-02-22T08:46:51.715Z,98616.34
2019-02-22T08:49:19.157Z,98611.34
2019-02-22T08:51:47.028Z,98604.09
2019-02-22T08:54:14.123Z,98604.16
2019-02-22T08:56:41.620Z,98598.33
2019-02-22T08:59:09.513Z,98597.38
2019-02-22T09:01:37.065Z,98604.91
2019-02-22T09:04:04.526Z,98594.59
2019-02-22T09:06:31.976Z,98578.22
2019-02-22T09:08:59.640Z,98582.07
2019-02-22T09:11:27.158Z,98572.72
2019-02-22T09:13:54.637Z,98574.56
2019-02-22T09:16:22.051Z,98572.70
2019-02-22T09:18:49.519Z,98573.70
2019-02-22T09:21:16.937Z,98571.72
2019-02-22T09:23:44.360Z,98560.17
2019-02-22T09:26:11.867Z,98557.88
2019-02-22T09:28:39.282Z,98567.09
2019-02-22T09:31:06.697Z,98562.45
2019-02-22T09:33:34.097Z,98564.70
2019-02-22T09:36:01.524Z,98562.22
2019-02-22T09:38:28.935Z,98564.66
2019-02-22T09:40:56.351Z,98570.58
2019-02-22T09:43:23.788Z,98572.51
2019-02-22T09:45:51.203Z,98567.08
2019-02-22T09:48:18.729Z,98565.14
2019-02-22T09:50:46.149Z,98565.78
2019-02-22T09:53:13.551Z,98562.26
2019-02-22T09:55:40.996Z,98553.72
2019-02-22T09:58:08.472Z,98550.38
2019-02-22T10:00:35.975Z,98554.97
2019-02-22T10:03:03.368Z,98553.24
2019-02-22T10:05:30.849Z,98550.58
2019-02-22T10:07:58.362Z,98550.64
2019-02-22T10:10:25.478Z,98539.01
2019-02-22T10:12:52.950Z,98536.34
2019-02-22T10:15:20.384Z,98529.61
2019-02-22T10:17:48.072Z,98537.45
2019-02-22T10:20:15.262Z,98538.85
2019-02-22T10:22:42.755Z,98536.06
2019-02-22T10:25:10.173Z,98530.16
2019-02-22T10:27:37.575Z,98531.12
2019-02-22T10:30:05.131Z,98533.46
2019-02-22T10:32:32.176Z,98532.89
2019-02-22T10:34:59.629Z,98534.88
2019-02-22T10:37:27.157Z,98531.00
2019-02-22T10:39:54.657Z,98523.66
2019-02-22T10:42:22.096Z,98524.61
2019-02-22T10:44:49.037Z,98519.25
2019-02-22T10:47:16.455Z,98516.31
2019-02-22T10:49:43.961Z,98511.52
2019-02-22T10:52:11.368Z,98514.84
2019-02-22T10:54:38.876Z,98503.16
2019-02-22T10:57:06.304Z,98501.16
2019-02-22T10:59:33.739Z,98495.11
2019-02-22T11:02:01.152Z,98493.77
2019-02-22T11:04:28.731Z,98479.82
2019-02-22T11:06:56.192Z,98478.88
2019-02-22T11:09:23.213Z,98480.02
2019-02-22T11:11:50.230Z,98472.16
2019-02-22T11:14:17.252Z,98470.01
2019-02-22T11:16:44.246Z,98456.16
2019-02-22T11:19:11.188Z,98457.21
2019-02-22T11:21:38.153Z,98451.44
2019-02-22T11:24:05.171Z,98453.56
2019-02-22T11:26:32.094Z,98444.68
2019-02-22T11:28:59.050Z,98442.73
2019-02-22T11:31:25.997Z,98429.39
2019-02-22T11:33:52.965Z,98423.68
2019-02-22T11:36:20.042Z,98411.47
2019-02-22T11:38:47.076Z,98407.78
2019-02-22T11:41:14.448Z,98404.47
2019-02-22T11:43:41.897Z,98405.34
2019-02-22T11:46:09.339Z,98400.24
2019-02-22T11:48:36.814Z,98397.73
2019-02-22T11:51:05.170Z,98394.14
2019-02-22T11:53:32.641Z,98386.42
2019-02-22T11:56:00.047Z,98389.92
2019-02-22T11:58:27.476Z,98386.70
2019-02-22T12:00:55.007Z,98385.19
2019-02-22T12:03:24.975Z,98383.78
2019-02-22T12:05:50.047Z,98382.69
2019-02-22T12:08:17.486Z,98389.42
2019-02-22T12:10:44.875Z,98383.80
2019-02-22T12:13:12.401Z,98381.62
2019-02-22T12:15:39.871Z,98378.36
2019-02-22T12:18:07.311Z,98385.37
2019-02-22T12:20:34.762Z,98390.05
2019-02-22T12:23:01.889Z,98386.65
2019-02-22T12:25:29.294Z,98396.23
2019-02-22T12:27:56.947Z,98386.50
2019-02-22T12:30:25.682Z,98392.64
2019-02-22T12:32:51.795Z,98384.28
2019-02-22T12:35:19.237Z,98380.55
2019-02-22T12:37:46.864Z,98382.62
2019-02-22T12:40:13.821Z,98378.55
2019-02-22T12:42:40.975Z,98374.75
2019-02-22T12:45:07.926Z,98374.71
2019-02-22T12:47:34.870Z,98372.17
2019-02-22T12:50:01.841Z,98366.94
2019-02-22T12:52:28.795Z,98361.01
2019-02-22T12:54:55.807Z,98365.97
2019-02-22T12:57:23.224Z,98362.12
2019-02-22T12:59:50.754Z,98362.33
2019-02-22T13:02:18.314Z,98356.28
2019-02-22T13:04:45.221Z,98343.70
2019-02-22T13:07:12.164Z,98352.20
2019-02-22T13:09:39.156Z,98355.36
2019-02-22T13:12:13.656Z,98344.09
2019-02-22T13:14:33.110Z,98353.42
2019-02-22T13:17:00.111Z,98341.00
2019-02-22T13:19:27.073Z,98344.28
2019-02-22T13:21:54.660Z,98342.35
2019-02-22T13:24:22.069Z,98344.79
2019-02-22T13:26:49.506Z,98347.91
2019-02-22T13:29:16.922Z,98349.42
2019-02-22T13:31:44.345Z,98349.09
2019-02-22T13:34:11.762Z,98353.76
2019-02-22T13:36:39.520Z,98345.52
2019-02-22T13:39:06.922Z,98351.59
2019-02-22T13:41:34.360Z,98350.96
2019-02-22T13:44:01.775Z,98347.81
2019-02-22T13:46:29.201Z,98346.97
2019-02-22T13:48:56.596Z,98342.02
2019-02-22T13:51:24.018Z,98342.44
2019-02-22T13:53:51.499Z,98345.70
2019-02-22T13:56:29.141Z,98335.11
2019-02-22T13:58:46.027Z,98334.05
2019-02-22T14:01:12.936Z,98334.47
2019-02-22T14:03:39.929Z,98328.30
2019-02-22T14:06:06.924Z,98322.65
2019-02-22T14:08:33.893Z,98325.67
2019-02-22T14:11:00.833Z,98324.09
2019-02-22T14:13:27.835Z,98323.25
2019-02-22T14:15:54.823Z,98315.80
2019-02-22T14:18:21.769Z,98327.63
2019-02-22T14:20:48.735Z,98316.87
2019-02-22T14:23:15.703Z,98320.86
2019-02-22T14:25:42.660Z,98303.11
2019-02-22T14:28:12.070Z,98308.97
2019-02-22T14:30:37.035Z,98301.42
2019-02-22T14:33:04.570Z,98303.63
2019-02-22T14:35:31.984Z,98302.23
2019-02-22T14:37:59.444Z,98309.92
2019-02-22T14:40:26.334Z,98312.48
2019-02-22T14:42:53.305Z,98307.86
2019-02-22T14:45:20.813Z,98303.09
2019-02-22T14:47:48.279Z,98309.63
2019-02-22T14:50:15.711Z,98297.30
2019-02-22T14:52:43.142Z,98300.47
2019-02-22T14:55:11.135Z,98296.95
2019-02-22T14:57:39.454Z,98303.75
2019-02-22T15:00:07.675Z,98299.01
2019-02-22T15:02:35.196Z,98307.23
2019-02-22T15:05:02.643Z,98313.51
2019-02-22T15:07:31.317Z,98303.47
2019-02-22T15:09:59.106Z,98311.30
2019-02-22T15:12:26.167Z,98300.49
2019-02-22T15:14:53.626Z,98305.22
2019-02-22T15:17:21.434Z,98306.66
2019-02-22T15:19:48.863Z,98306.03
2019-02-22T15:22:16.294Z,98302.88
2019-02-22T15:24:43.944Z,98309.67
2019-02-22T15:27:11.611Z,98318.88
2019-02-22T15:29:39.019Z,98324.89
2019-02-22T15:32:06.605Z,98325.51
2019-02-22T15:34:34.081Z,98321.70
2019-02-22T15:37:01.712Z,98315.83
2019-02-22T15:39:29.182Z,98327.43
2019-02-22T15:41:56.675Z,98322.38
2019-02-22T15:44:24.189Z,98322.74
2019-02-22T15:46:51.584Z,98318.63
2019-02-22T15:49:19.013Z,98314.20
2019-02-22T15:51:46.462Z,98317.58
2019-02-22T15:54:13.855Z,98319.42
2019-02-22T15:56:41.661Z,98319.88
2019-02-22T15:59:09.134Z,98321.23
2019-02-22T16:01:36.617Z,98311.91
2019-02-22T16:04:04.118Z,98315.20
2019-02-22T16:06:32.412Z,98317.69
2019-02-22T16:08:58.955Z,98320.33
2019-02-22T16:11:26.541Z,98316.98
2019-02-22T16:13:53.989Z,98317.03
2019-02-22T16:16:23.517Z,98326.36
2019-02-22T16:18:48.936Z,98330.88
2019-02-22T16:21:16.355Z,98334.64
2019-02-22T16:23:44.050Z,98332.00
2019-02-22T16:26:11.490Z,98333.92
2019-02-22T16:28:38.950Z,98333.23
2019-02-22T16:31:06.390Z,98341.61
2019-02-22T16:33:33.812Z,98338.47
2019-02-22T16:36:01.244Z,98345.36
2019-02-22T16:38:28.700Z,98340.66
2019-02-22T16:40:56.127Z,98340.88
2019-02-22T16:43:23.532Z,98340.95
2019-02-22T16:45:51.029Z,98338.92
2019-02-22T16:48:18.460Z,98345.31
2019-02-22T16:50:45.858Z,98350.62
2019-02-22T16:53:13.432Z,98360.45
2019-02-22T16:55:40.831Z,98371.17
2019-02-22T16:58:08.443Z,98369.79
2019-02-22T17:00:35.911Z,98388.41
2019-02-22T17:03:03.348Z,98384.31
2019-02-22T17:05:30.818Z,98401.94
2019-02-22T17:07:58.230Z,98403.20
2019-02-22T17:10:25.680Z,98410.41
2019-02-22T17:12:53.100Z,98417.45
2019-02-22T17:15:20.533Z,98418.86
2019-02-22T17:17:48.072Z,98425.81
2019-02-22T17:20:15.564Z,98421.88
2019-02-22T17:22:43.134Z,98419.94
2019-02-22T17:25:15.944Z,98429.41
2019-02-22T17:27:43.562Z,98414.95
2019-02-22T17:30:13.795Z,98420.36
2019-02-22T17:32:41.215Z,98418.59
2019-02-22T17:35:08.705Z,98423.39
2019-02-22T17:37:36.151Z,98423.39
2019-02-22T17:40:03.605Z,98418.66
2019-02-22T17:42:31.019Z,98425.45
2019-02-22T17:44:58.449Z,98419.50
2019-02-22T17:47:25.863Z,98415.03
2019-02-22T17:49:54.095Z,98429.08
2019-02-22T17:52:21.489Z,98433.35
2019-02-22T17:54:48.967Z,98432.66
2019-02-22T17:57:16.446Z,98431.86
2019-02-22T17:59:43.872Z,98435.14
2019-02-22T18:02:11.561Z,98437.41
2019-02-22T18:04:38.954Z,98439.89
2019-02-22T18:07:06.556Z,98438.86
2019-02-22T18:09:34.125Z,98434.12
2019-02-22T18:12:01.537Z,98432.18
2019-02-22T18:14:28.994Z,98433.17
2019-02-22T18:16:56.438Z,98436.28
2019-02-22T18:19:23.883Z,98428.20
2019-02-22T18:21:51.290Z,98425.31
2019-02-22T18:24:18.747Z,98435.25
2019-02-22T18:26:46.243Z,98436.26
2019-02-22T18:29:13.682Z,98438.43
2019-02-22T18:31:42.374Z,98437.75
2019-02-22T18:34:08.514Z,98434.77
2019-02-22T18:36:35.951Z,98436.13
2019-02-22T18:39:05.357Z,98432.83
2019-02-22T18:41:32.825Z,98425.73
2019-02-22T18:44:00.272Z,98431.20
2019-02-22T18:46:27.693Z,98430.27
2019-02-22T18:48:55.115Z,98434.72
2019-02-22T18:51:22.745Z,98431.72
2019-02-22T18:53:50.206Z,98421.56
2019-02-22T18:56:17.624Z,98435.92
2019-02-22T18:58:45.045Z,98422.83
2019-02-22T19:01:12.472Z,98417.89
2019-02-22T19:03:39.919Z,98419.80
2019-02-22T19:06:07.383Z,98404.94
2019-02-22T19:08:34.871Z,98400.16
2019-02-22T19:11:02.273Z,98399.33
2019-02-22T19:13:29.703Z,98390.03
2019-02-22T19:15:57.311Z,98389.42
2019-02-22T19:18:24.702Z,98383.00
2019-02-22T19:20:52.710Z,98379.80
2019-02-22T19:23:20.159Z,98376.66
2019-02-22T19:25:47.608Z,98379.76
2019-02-22T19:28:15.019Z,98383.13
2019-02-22T19:30:42.451Z,98382.28
2019-02-22T19:33:09.864Z,98385.64
2019-02-22T19:35:37.403Z,98387.14
2019-02-22T19:38:04.840Z,98389.19
2019-02-22T19:40:32.259Z,98388.09
2019-02-22T19:42:59.658Z,98396.55
2019-02-22T19:45:27.062Z,98399.02
2019-02-22T19:47:54.825Z,98401.23
2019-02-22T19:50:22.406Z,98401.59
2019-02-22T19:52:49.884Z,98408.69
2019-02-22T19:55:17.467Z,98411.52
2019-02-22T19:57:45.007Z,98408.73
2019-02-22T20:00:13.176Z,98423.43
2019-02-22T20:02:40.582Z,98430.36
2019-02-22T20:05:08.019Z,98425.84
2019-02-22T20:07:35.455Z,98425.13
2019-02-22T20:10:03.011Z,98427.95
2019-02-22T20:12:30.415Z,98430.48
2019-02-22T20:14:57.854Z,98435.84
2019-02-22T20:17:25.392Z,98439.50
2019-02-22T20:19:53.373Z,98444.35
2019-02-22T20:22:20.969Z,98450.75
2019-02-22T20:24:48.574Z,98458.98
2019-02-22T20:27:15.971Z,98449.05
2019-02-22T20:29:43.406Z,98458.25
2019-02-22T20:32:10.808Z,98461.86
2019-02-22T20:34:38.385Z,98458.33
2019-02-22T20:37:05.903Z,98462.84
2019-02-22T20:39:33.332Z,98460.22
2019-02-22T20:42:00.759Z,98459.02
2019-02-22T20:44:28.230Z,98463.67
2019-02-22T20:46:55.641Z,98456.18
2019-02-22T20:49:23.856Z,98456.77
2019-02-22T20:51:51.299Z,98459.69
2019-02-22T20:54:18.717Z,98458.70
2019-02-22T20:56:46.137Z,98463.38
2019-02-22T20:59:13.799Z,98463.10
2019-02-22T21:01:41.198Z,98463.11
2019-02-22T21:04:08.907Z,98466.67
2019-02-22T21:06:36.991Z,98468.20
2019-02-22T21:09:04.398Z,98469.98
2019-02-22T21:11:31.852Z,98476.43
2019-02-22T21:13:59.271Z,98474.97
2019-02-22T21:16:26.721Z,98475.84
2019-02-22T21:18:54.195Z,98474.77
2019-02-22T21:21:22.879Z,98477.59
2019-02-22T21:23:52.059Z,98480.27
2019-02-22T21:26:17.780Z,98486.03
2019-02-22T21:28:45.263Z,98483.91
2019-02-22T21:31:12.675Z,98484.80
2019-02-22T21:33:40.188Z,98483.58
2019-02-22T21:36:07.616Z,98486.97
2019-02-22T21:38:35.091Z,98482.51
2019-02-22T21:41:02.539Z,98481.08
2019-02-22T21:43:33.966Z,98484.09
2019-02-22T21:46:01.475Z,98489.16
2019-02-22T21:48:28.957Z,98486.49
2019-02-22T21:50:56.378Z,98480.81
2019-02-22T21:53:25.265Z,98479.41
2019-02-22T21:55:52.299Z,98480.02
2019-02-22T21:58:19.738Z,98479.97
2019-02-22T22:00:47.197Z,98478.98
2019-02-22T22:03:14.904Z,98476.86
2019-02-22T22:05:42.519Z,98480.48
2019-02-22T22:08:10.116Z,98473.69
2019-02-22T22:10:37.538Z,98469.39
2019-02-22T22:13:04.980Z,98471.22
2019-02-22T22:15:32.484Z,98464.06
2019-02-22T22:17:59.998Z,98470.06
2019-02-22T22:20:27.481Z,98475.46
2019-02-22T22:22:54.988Z,98466.23
2019-02-22T22:25:22.594Z,98474.11
2019-02-22T22:27:50.156Z,98476.86
2019-02-22T22:30:17.595Z,98480.89
2019-02-22T22:32:45.064Z,98470.36
2019-02-22T22:35:13.442Z,98471.53
2019-02-22T22:37:40.878Z,98469.45
2019-02-22T22:40:09.265Z,98476.57
2019-02-22T22:42:36.713Z,98471.73
2019-02-22T22:45:05.999Z,98477.92
2019-02-22T22:47:31.765Z,98468.09
2019-02-22T22:49:59.097Z,98471.63
2019-02-22T22:52:26.567Z,98473.46
2019-02-22T22:54:53.974Z,98474.41
2019-02-22T22:57:21.375Z,98478.07
2019-02-22T22:59:48.792Z,98482.77
2019-02-22T23:02:16.357Z,98481.12
2019-02-22T23:04:44.269Z,98485.76
2019-02-22T23:07:11.691Z,98486.61
2019-02-22T23:09:39.099Z,98490.26
2019-02-22T23:12:06.531Z,98491.75
2019-02-22T23:14:33.935Z,98493.63
2019-02-22T23:17:01.357Z,98499.92
2019-02-22T23:19:28.872Z,98497.23
2019-02-22T23:21:56.279Z,98495.05
2019-02-22T23:24:23.732Z,98491.80
2019-02-22T23:26:51.251Z,98496.05
2019-02-22T23:29:18.651Z,98498.58
2019-02-22T23:31:46.376Z,98501.23
2019-02-22T23:34:13.814Z,98506.52
2019-02-22T23:36:41.351Z,98509.91
2019-02-22T23:39:08.760Z,98513.58
2019-02-22T23:41:36.327Z,98512.70
2019-02-22T23:44:03.827Z,98510.32
2019-02-22T23:46:31.221Z,98513.54
2019-02-22T23:48:58.631Z,98508.30
2019-02-22T23:51:26.038Z,98507.63
2019-02-22T23:53:53.958Z,98499.06
2019-02-22T23:56:21.355Z,98500.13
2019-02-22T23:58:49.140Z,98498.43
